sensor_id;sensor_type;location;lat;lon;timestamp;temperature;humidity
3037;DHT22;1528;52.550;13.408;2024-03-08T00:01:45;4.20;24.80
3037;DHT22;1528;52.550;13.408;2024-03-08T00:04:31;4.30;24.80
3037;DHT22;1528;52.550;13.408;2024-03-08T00:07:16;4.20;24.90
3037;DHT22;1528;52.550;13.408;2024-03-08T00:10:02;4.20;25.00
3037;DHT22;1528;52.550;13.408;2024-03-08T00:12:48;4.10;25.00
3037;DHT22;1528;52.550;13.408;2024-03-08T00:15:34;4.10;25.30
3037;DHT22;1528;52.550;13.408;2024-03-08T00:18:21;4.00;25.30
3037;DHT22;1528;52.550;13.408;2024-03-08T00:21:07;4.00;25.40
3037;DHT22;1528;52.550;13.408;2024-03-08T00:23:54;4.00;25.50
3037;DHT22;1528;52.550;13.408;2024-03-08T00:26:39;3.90;25.50
3037;DHT22;1528;52.550;13.408;2024-03-08T00:29:26;3.90;25.50
3037;DHT22;1528;52.550;13.408;2024-03-08T00:32:11;3.90;25.60
3037;DHT22;1528;52.550;13.408;2024-03-08T00:34:58;3.90;25.60
3037;DHT22;1528;52.550;13.408;2024-03-08T00:37:44;3.80;25.80
3037;DHT22;1528;52.550;13.408;2024-03-08T00:40:30;3.80;25.80
3037;DHT22;1528;52.550;13.408;2024-03-08T00:43:16;3.80;26.00
3037;DHT22;1528;52.550;13.408;2024-03-08T00:46:02;3.70;26.20
3037;DHT22;1528;52.550;13.408;2024-03-08T00:48:47;3.60;26.20
3037;DHT22;1528;52.550;13.408;2024-03-08T00:51:34;3.60;26.50
3037;DHT22;1528;52.550;13.408;2024-03-08T00:54:20;3.60;26.90
3037;DHT22;1528;52.550;13.408;2024-03-08T00:57:06;3.50;26.40
3037;DHT22;1528;52.550;13.408;2024-03-08T00:59:52;3.50;26.40
3037;DHT22;1528;52.550;13.408;2024-03-08T01:02:38;3.50;26.50
3037;DHT22;1528;52.550;13.408;2024-03-08T01:05:24;3.60;26.70
3037;DHT22;1528;52.550;13.408;2024-03-08T01:08:11;3.40;26.70
3037;DHT22;1528;52.550;13.408;2024-03-08T01:10:56;3.40;26.80
3037;DHT22;1528;52.550;13.408;2024-03-08T01:13:42;3.30;27.00
3037;DHT22;1528;52.550;13.408;2024-03-08T01:16:27;3.30;27.00
3037;DHT22;1528;52.550;13.408;2024-03-08T01:19:13;3.30;27.50
3037;DHT22;1528;52.550;13.408;2024-03-08T01:21:59;3.30;27.00
3037;DHT22;1528;52.550;13.408;2024-03-08T01:24:46;3.30;27.00
3037;DHT22;1528;52.550;13.408;2024-03-08T01:27:32;3.20;27.20
3037;DHT22;1528;52.550;13.408;2024-03-08T01:30:20;3.20;27.20
3037;DHT22;1528;52.550;13.408;2024-03-08T01:33:06;3.20;27.30
3037;DHT22;1528;52.550;13.408;2024-03-08T01:35:52;3.20;27.40
3037;DHT22;1528;52.550;13.408;2024-03-08T01:38:38;3.20;27.50
3037;DHT22;1528;52.550;13.408;2024-03-08T01:41:26;3.20;27.50
3037;DHT22;1528;52.550;13.408;2024-03-08T01:44:13;3.10;27.50
3037;DHT22;1528;52.550;13.408;2024-03-08T01:47:01;3.10;27.50
3037;DHT22;1528;52.550;13.408;2024-03-08T01:49:47;3.10;27.50
3037;DHT22;1528;52.550;13.408;2024-03-08T01:52:32;3.10;28.30
3037;DHT22;1528;52.550;13.408;2024-03-08T01:55:19;3.00;27.90
3037;DHT22;1528;52.550;13.408;2024-03-08T01:58:10;3.00;27.80
3037;DHT22;1528;52.550;13.408;2024-03-08T02:00:56;3.00;27.90
3037;DHT22;1528;52.550;13.408;2024-03-08T02:03:42;2.90;28.10
3037;DHT22;1528;52.550;13.408;2024-03-08T02:06:29;2.90;28.10
3037;DHT22;1528;52.550;13.408;2024-03-08T02:09:15;2.90;28.10
3037;DHT22;1528;52.550;13.408;2024-03-08T02:12:01;2.90;28.80
3037;DHT22;1528;52.550;13.408;2024-03-08T02:14:49;2.80;28.40
3037;DHT22;1528;52.550;13.408;2024-03-08T02:17:34;2.70;28.50
3037;DHT22;1528;52.550;13.408;2024-03-08T02:20:20;2.70;28.60
3037;DHT22;1528;52.550;13.408;2024-03-08T02:23:07;2.70;28.80
3037;DHT22;1528;52.550;13.408;2024-03-08T02:25:53;2.70;28.90
3037;DHT22;1528;52.550;13.408;2024-03-08T02:28:38;2.70;29.00
3037;DHT22;1528;52.550;13.408;2024-03-08T02:31:27;2.60;29.00
3037;DHT22;1528;52.550;13.408;2024-03-08T02:34:13;2.50;29.20
3037;DHT22;1528;52.550;13.408;2024-03-08T02:36:58;2.50;29.30
3037;DHT22;1528;52.550;13.408;2024-03-08T02:39:45;2.60;29.60
3037;DHT22;1528;52.550;13.408;2024-03-08T02:42:31;2.50;29.30
3037;DHT22;1528;52.550;13.408;2024-03-08T02:45:17;2.50;29.50
3037;DHT22;1528;52.550;13.408;2024-03-08T02:48:03;2.50;29.50
3037;DHT22;1528;52.550;13.408;2024-03-08T02:50:48;2.60;29.40
3037;DHT22;1528;52.550;13.408;2024-03-08T02:53:36;2.50;29.60
3037;DHT22;1528;52.550;13.408;2024-03-08T02:56:23;2.50;29.60
3037;DHT22;1528;52.550;13.408;2024-03-08T02:59:08;2.60;29.70
3037;DHT22;1528;52.550;13.408;2024-03-08T03:01:54;2.60;29.80
3037;DHT22;1528;52.550;13.408;2024-03-08T03:04:39;2.50;30.30
3037;DHT22;1528;52.550;13.408;2024-03-08T03:07:25;2.50;30.00
3037;DHT22;1528;52.550;13.408;2024-03-08T03:17:20;2.50;30.00
3037;DHT22;1528;52.550;13.408;2024-03-08T03:20:06;2.50;30.60
3037;DHT22;1528;52.550;13.408;2024-03-08T03:22:54;2.40;30.10
3037;DHT22;1528;52.550;13.408;2024-03-08T03:25:41;2.50;30.00
3037;DHT22;1528;52.550;13.408;2024-03-08T03:28:27;2.40;30.00
3037;DHT22;1528;52.550;13.408;2024-03-08T03:31:12;2.40;30.20
3037;DHT22;1528;52.550;13.408;2024-03-08T03:34:00;2.40;30.20
3037;DHT22;1528;52.550;13.408;2024-03-08T03:36:46;2.40;30.40
3037;DHT22;1528;52.550;13.408;2024-03-08T03:39:32;2.40;30.40
3037;DHT22;1528;52.550;13.408;2024-03-08T03:42:19;2.40;30.30
3037;DHT22;1528;52.550;13.408;2024-03-08T03:45:05;2.40;30.30
3037;DHT22;1528;52.550;13.408;2024-03-08T03:47:51;2.30;30.40
3037;DHT22;1528;52.550;13.408;2024-03-08T03:50:38;2.30;30.40
3037;DHT22;1528;52.550;13.408;2024-03-08T03:53:24;2.30;30.60
3037;DHT22;1528;52.550;13.408;2024-03-08T03:56:10;2.30;30.50
3037;DHT22;1528;52.550;13.408;2024-03-08T03:58:56;2.30;30.60
3037;DHT22;1528;52.550;13.408;2024-03-08T04:01:42;2.30;30.60
3037;DHT22;1528;52.550;13.408;2024-03-08T04:04:28;2.30;30.70
3037;DHT22;1528;52.550;13.408;2024-03-08T04:07:15;2.20;30.80
3037;DHT22;1528;52.550;13.408;2024-03-08T04:10:00;2.30;30.90
3037;DHT22;1528;52.550;13.408;2024-03-08T04:12:46;2.20;30.90
3037;DHT22;1528;52.550;13.408;2024-03-08T04:15:31;2.20;31.00
3037;DHT22;1528;52.550;13.408;2024-03-08T04:18:17;2.20;31.10
3037;DHT22;1528;52.550;13.408;2024-03-08T04:21:04;2.20;31.20
3037;DHT22;1528;52.550;13.408;2024-03-08T04:23:52;2.20;31.20
3037;DHT22;1528;52.550;13.408;2024-03-08T04:26:38;2.10;31.20
3037;DHT22;1528;52.550;13.408;2024-03-08T04:29:24;2.10;31.30
3037;DHT22;1528;52.550;13.408;2024-03-08T04:32:10;2.20;31.40
3037;DHT22;1528;52.550;13.408;2024-03-08T04:34:57;2.10;31.40
3037;DHT22;1528;52.550;13.408;2024-03-08T04:37:45;2.10;32.10
3037;DHT22;1528;52.550;13.408;2024-03-08T04:40:33;2.20;31.60
3037;DHT22;1528;52.550;13.408;2024-03-08T04:43:18;2.20;31.70
3037;DHT22;1528;52.550;13.408;2024-03-08T04:46:04;2.10;31.70
3037;DHT22;1528;52.550;13.408;2024-03-08T04:48:50;2.10;31.80
3037;DHT22;1528;52.550;13.408;2024-03-08T04:51:35;2.10;31.90
3037;DHT22;1528;52.550;13.408;2024-03-08T04:54:21;2.10;31.80
3037;DHT22;1528;52.550;13.408;2024-03-08T04:57:08;2.10;31.90
3037;DHT22;1528;52.550;13.408;2024-03-08T04:59:53;2.10;31.90
3037;DHT22;1528;52.550;13.408;2024-03-08T05:02:39;2.20;31.90
3037;DHT22;1528;52.550;13.408;2024-03-08T05:05:25;2.20;31.80
3037;DHT22;1528;52.550;13.408;2024-03-08T05:08:12;2.10;31.80
3037;DHT22;1528;52.550;13.408;2024-03-08T05:10:58;2.10;31.80
3037;DHT22;1528;52.550;13.408;2024-03-08T05:13:48;2.10;32.00
3037;DHT22;1528;52.550;13.408;2024-03-08T05:16:34;2.00;31.90
3037;DHT22;1528;52.550;13.408;2024-03-08T05:19:20;2.10;32.10
3037;DHT22;1528;52.550;13.408;2024-03-08T05:22:06;2.00;32.00
3037;DHT22;1528;52.550;13.408;2024-03-08T05:24:51;2.00;32.10
3037;DHT22;1528;52.550;13.408;2024-03-08T05:27:37;2.00;32.10
3037;DHT22;1528;52.550;13.408;2024-03-08T05:30:24;2.00;32.30
3037;DHT22;1528;52.550;13.408;2024-03-08T05:33:09;2.00;32.30
3037;DHT22;1528;52.550;13.408;2024-03-08T05:35:55;2.00;32.30
3037;DHT22;1528;52.550;13.408;2024-03-08T05:38:41;2.00;32.20
3037;DHT22;1528;52.550;13.408;2024-03-08T05:41:27;2.00;32.30
3037;DHT22;1528;52.550;13.408;2024-03-08T05:44:13;1.90;32.40
3037;DHT22;1528;52.550;13.408;2024-03-08T05:47:02;1.90;32.50
3037;DHT22;1528;52.550;13.408;2024-03-08T05:49:47;2.00;32.50
3037;DHT22;1528;52.550;13.408;2024-03-08T05:52:33;2.00;32.60
3037;DHT22;1528;52.550;13.408;2024-03-08T05:55:19;2.00;32.70
3037;DHT22;1528;52.550;13.408;2024-03-08T05:58:05;1.90;32.70
3037;DHT22;1528;52.550;13.408;2024-03-08T06:00:51;1.90;32.60
3037;DHT22;1528;52.550;13.408;2024-03-08T06:03:38;1.90;32.80
3037;DHT22;1528;52.550;13.408;2024-03-08T06:06:29;2.00;32.80
3037;DHT22;1528;52.550;13.408;2024-03-08T06:09:14;2.00;32.80
3037;DHT22;1528;52.550;13.408;2024-03-08T06:12:07;2.00;32.60
3037;DHT22;1528;52.550;13.408;2024-03-08T06:14:55;2.00;32.60
3037;DHT22;1528;52.550;13.408;2024-03-08T06:17:40;2.00;32.80
3037;DHT22;1528;52.550;13.408;2024-03-08T06:20:27;2.00;32.80
3037;DHT22;1528;52.550;13.408;2024-03-08T06:23:13;2.10;32.70
3037;DHT22;1528;52.550;13.408;2024-03-08T06:26:01;2.10;32.70
3037;DHT22;1528;52.550;13.408;2024-03-08T06:28:47;2.10;32.80
3037;DHT22;1528;52.550;13.408;2024-03-08T06:31:33;2.10;32.80
3037;DHT22;1528;52.550;13.408;2024-03-08T06:34:18;2.20;32.70
3037;DHT22;1528;52.550;13.408;2024-03-08T06:37:06;2.20;32.90
3037;DHT22;1528;52.550;13.408;2024-03-08T06:39:51;2.20;32.70
3037;DHT22;1528;52.550;13.408;2024-03-08T06:42:39;2.30;32.80
3037;DHT22;1528;52.550;13.408;2024-03-08T06:45:25;2.30;32.70
3037;DHT22;1528;52.550;13.408;2024-03-08T06:48:11;2.40;32.70
3037;DHT22;1528;52.550;13.408;2024-03-08T06:50:56;2.50;32.60
3037;DHT22;1528;52.550;13.408;2024-03-08T06:53:43;2.40;32.10
3037;DHT22;1528;52.550;13.408;2024-03-08T06:56:29;2.40;32.40
3037;DHT22;1528;52.550;13.408;2024-03-08T06:59:14;2.50;32.40
3037;DHT22;1528;52.550;13.408;2024-03-08T07:02:02;2.50;32.70
3037;DHT22;1528;52.550;13.408;2024-03-08T07:04:48;2.60;32.10
3037;DHT22;1528;52.550;13.408;2024-03-08T07:07:33;2.60;31.80
3037;DHT22;1528;52.550;13.408;2024-03-08T07:10:21;2.70;32.00
3037;DHT22;1528;52.550;13.408;2024-03-08T07:13:08;2.80;31.70
3037;DHT22;1528;52.550;13.408;2024-03-08T07:15:54;2.80;31.40
3037;DHT22;1528;52.550;13.408;2024-03-08T07:18:39;2.80;31.50
3037;DHT22;1528;52.550;13.408;2024-03-08T07:21:27;2.80;31.70
3037;DHT22;1528;52.550;13.408;2024-03-08T07:24:13;2.90;31.10
3037;DHT22;1528;52.550;13.408;2024-03-08T07:27:18;3.00;31.40
3037;DHT22;1528;52.550;13.408;2024-03-08T07:30:05;3.00;31.50
3037;DHT22;1528;52.550;13.408;2024-03-08T07:32:50;3.10;30.60
3037;DHT22;1528;52.550;13.408;2024-03-08T07:35:36;3.10;30.30
3037;DHT22;1528;52.550;13.408;2024-03-08T07:38:21;3.30;30.40
3037;DHT22;1528;52.550;13.408;2024-03-08T07:41:07;3.40;29.80
3037;DHT22;1528;52.550;13.408;2024-03-08T07:43:54;3.50;29.80
3037;DHT22;1528;52.550;13.408;2024-03-08T07:46:39;3.50;29.30
3037;DHT22;1528;52.550;13.408;2024-03-08T07:49:25;3.60;28.90
3037;DHT22;1528;52.550;13.408;2024-03-08T07:52:11;3.70;29.00
3037;DHT22;1528;52.550;13.408;2024-03-08T07:55:00;3.70;28.50
3037;DHT22;1528;52.550;13.408;2024-03-08T07:57:45;3.80;28.60
3037;DHT22;1528;52.550;13.408;2024-03-08T08:00:33;3.90;28.00
3037;DHT22;1528;52.550;13.408;2024-03-08T08:03:20;4.00;27.80
3037;DHT22;1528;52.550;13.408;2024-03-08T08:06:05;4.10;27.60
3037;DHT22;1528;52.550;13.408;2024-03-08T08:08:51;4.20;27.50
3037;DHT22;1528;52.550;13.408;2024-03-08T08:11:37;4.30;27.60
3037;DHT22;1528;52.550;13.408;2024-03-08T08:14:23;4.50;27.50
3037;DHT22;1528;52.550;13.408;2024-03-08T08:17:10;4.60;26.80
3037;DHT22;1528;52.550;13.408;2024-03-08T08:19:56;4.70;26.60
3037;DHT22;1528;52.550;13.408;2024-03-08T08:22:41;4.90;26.30
3037;DHT22;1528;52.550;13.408;2024-03-08T08:25:26;5.00;26.00
3037;DHT22;1528;52.550;13.408;2024-03-08T08:28:12;5.10;25.80
3037;DHT22;1528;52.550;13.408;2024-03-08T08:30:58;5.10;25.30
3037;DHT22;1528;52.550;13.408;2024-03-08T08:33:45;5.10;25.00
3037;DHT22;1528;52.550;13.408;2024-03-08T08:36:32;5.20;24.00
3037;DHT22;1528;52.550;13.408;2024-03-08T08:39:17;5.30;24.30
3037;DHT22;1528;52.550;13.408;2024-03-08T08:42:03;5.50;23.80
3037;DHT22;1528;52.550;13.408;2024-03-08T08:44:49;5.70;23.60
3037;DHT22;1528;52.550;13.408;2024-03-08T08:47:35;5.80;22.70
3037;DHT22;1528;52.550;13.408;2024-03-08T08:50:22;5.90;22.50
3037;DHT22;1528;52.550;13.408;2024-03-08T08:53:08;6.00;23.10
3037;DHT22;1528;52.550;13.408;2024-03-08T08:55:54;6.20;23.00
3037;DHT22;1528;52.550;13.408;2024-03-08T08:58:40;6.20;22.40
3037;DHT22;1528;52.550;13.408;2024-03-08T09:05:07;6.60;21.40
3037;DHT22;1528;52.550;13.408;2024-03-08T09:07:54;7.10;21.10
3037;DHT22;1528;52.550;13.408;2024-03-08T09:10:40;7.60;20.30
3037;DHT22;1528;52.550;13.408;2024-03-08T09:13:25;8.00;19.80
3037;DHT22;1528;52.550;13.408;2024-03-08T09:16:11;8.30;18.70
3037;DHT22;1528;52.550;13.408;2024-03-08T09:18:56;8.80;17.60
3037;DHT22;1528;52.550;13.408;2024-03-08T09:21:42;8.90;17.10
3037;DHT22;1528;52.550;13.408;2024-03-08T09:24:29;9.00;17.20
3037;DHT22;1528;52.550;13.408;2024-03-08T09:27:15;9.40;16.70
3037;DHT22;1528;52.550;13.408;2024-03-08T09:30:00;9.80;16.20
3037;DHT22;1528;52.550;13.408;2024-03-08T09:32:46;10.00;15.10
3037;DHT22;1528;52.550;13.408;2024-03-08T09:35:32;10.10;14.20
3037;DHT22;1528;52.550;13.408;2024-03-08T09:38:18;9.90;14.00
3037;DHT22;1528;52.550;13.408;2024-03-08T09:41:06;9.90;14.00
3037;DHT22;1528;52.550;13.408;2024-03-08T09:43:54;10.20;13.20
3037;DHT22;1528;52.550;13.408;2024-03-08T09:46:40;10.40;13.00
3037;DHT22;1528;52.550;13.408;2024-03-08T09:49:25;10.40;12.40
3037;DHT22;1528;52.550;13.408;2024-03-08T09:52:11;10.50;12.20
3037;DHT22;1528;52.550;13.408;2024-03-08T09:54:57;10.40;12.20
3037;DHT22;1528;52.550;13.408;2024-03-08T09:57:47;10.30;11.80
3037;DHT22;1528;52.550;13.408;2024-03-08T10:00:52;10.20;12.00
3037;DHT22;1528;52.550;13.408;2024-03-08T10:03:38;10.10;12.30
3037;DHT22;1528;52.550;13.408;2024-03-08T10:06:24;10.00;13.10
3037;DHT22;1528;52.550;13.408;2024-03-08T10:09:10;10.00;12.20
3037;DHT22;1528;52.550;13.408;2024-03-08T10:11:56;9.40;14.30
3037;DHT22;1528;52.550;13.408;2024-03-08T10:14:43;9.40;14.20
3037;DHT22;1528;52.550;13.408;2024-03-08T10:17:30;9.40;14.00
3037;DHT22;1528;52.550;13.408;2024-03-08T10:20:18;9.80;12.90
3037;DHT22;1528;52.550;13.408;2024-03-08T10:23:04;9.80;12.60
3037;DHT22;1528;52.550;13.408;2024-03-08T10:25:50;9.60;13.10
3037;DHT22;1528;52.550;13.408;2024-03-08T10:28:35;9.70;13.50
3037;DHT22;1528;52.550;13.408;2024-03-08T10:31:23;9.70;13.10
3037;DHT22;1528;52.550;13.408;2024-03-08T10:34:08;9.70;12.70
3037;DHT22;1528;52.550;13.408;2024-03-08T10:36:57;9.70;12.70
3037;DHT22;1528;52.550;13.408;2024-03-08T10:39:50;9.70;13.10
3037;DHT22;1528;52.550;13.408;2024-03-08T10:42:41;9.80;13.10
3037;DHT22;1528;52.550;13.408;2024-03-08T10:45:35;9.80;13.00
3037;DHT22;1528;52.550;13.408;2024-03-08T10:48:27;9.90;12.00
3037;DHT22;1528;52.550;13.408;2024-03-08T10:51:15;10.20;11.80
3037;DHT22;1528;52.550;13.408;2024-03-08T10:54:01;10.30;11.20
3037;DHT22;1528;52.550;13.408;2024-03-08T10:56:48;10.40;11.30
3037;DHT22;1528;52.550;13.408;2024-03-08T10:59:34;10.60;10.90
3037;DHT22;1528;52.550;13.408;2024-03-08T11:02:20;10.70;11.00
3037;DHT22;1528;52.550;13.408;2024-03-08T11:05:10;10.80;11.60
3037;DHT22;1528;52.550;13.408;2024-03-08T11:07:57;10.90;9.60
3037;DHT22;1528;52.550;13.408;2024-03-08T11:10:47;10.80;10.10
3037;DHT22;1528;52.550;13.408;2024-03-08T11:13:36;10.50;9.90
3037;DHT22;1528;52.550;13.408;2024-03-08T11:16:37;10.20;9.80
3037;DHT22;1528;52.550;13.408;2024-03-08T11:19:25;10.40;9.90
3037;DHT22;1528;52.550;13.408;2024-03-08T11:22:22;10.40;10.10
3037;DHT22;1528;52.550;13.408;2024-03-08T11:25:09;10.60;10.00
3037;DHT22;1528;52.550;13.408;2024-03-08T11:28:10;10.30;9.60
3037;DHT22;1528;52.550;13.408;2024-03-08T11:31:24;9.90;9.80
3037;DHT22;1528;52.550;13.408;2024-03-08T11:34:15;9.80;10.40
3037;DHT22;1528;52.550;13.408;2024-03-08T11:37:11;9.90;10.50
3037;DHT22;1528;52.550;13.408;2024-03-08T11:39:58;9.80;10.40
3037;DHT22;1528;52.550;13.408;2024-03-08T11:42:46;9.50;10.80
3037;DHT22;1528;52.550;13.408;2024-03-08T11:45:33;9.30;11.00
3037;DHT22;1528;52.550;13.408;2024-03-08T11:48:20;9.20;10.70
3037;DHT22;1528;52.550;13.408;2024-03-08T11:51:05;9.20;10.80
3037;DHT22;1528;52.550;13.408;2024-03-08T11:53:51;9.00;10.70
3037;DHT22;1528;52.550;13.408;2024-03-08T11:56:38;9.00;9.70
3037;DHT22;1528;52.550;13.408;2024-03-08T11:59:24;9.10;9.90
3037;DHT22;1528;52.550;13.408;2024-03-08T12:02:11;9.20;10.00
3037;DHT22;1528;52.550;13.408;2024-03-08T12:04:58;9.10;9.70
3037;DHT22;1528;52.550;13.408;2024-03-08T12:07:56;9.00;10.20
3037;DHT22;1528;52.550;13.408;2024-03-08T12:10:42;9.10;9.90
3037;DHT22;1528;52.550;13.408;2024-03-08T12:13:30;9.30;9.80
3037;DHT22;1528;52.550;13.408;2024-03-08T12:16:17;9.30;9.10
3037;DHT22;1528;52.550;13.408;2024-03-08T12:19:03;9.20;9.00
3037;DHT22;1528;52.550;13.408;2024-03-08T12:21:49;9.20;9.20
3037;DHT22;1528;52.550;13.408;2024-03-08T12:24:35;9.30;9.50
3037;DHT22;1528;52.550;13.408;2024-03-08T12:27:21;9.30;9.80
3037;DHT22;1528;52.550;13.408;2024-03-08T12:30:22;9.40;9.90
3037;DHT22;1528;52.550;13.408;2024-03-08T12:33:08;9.40;9.60
3037;DHT22;1528;52.550;13.408;2024-03-08T12:35:55;9.30;9.50
3037;DHT22;1528;52.550;13.408;2024-03-08T12:38:43;9.40;8.60
3037;DHT22;1528;52.550;13.408;2024-03-08T12:41:31;9.50;8.70
3037;DHT22;1528;52.550;13.408;2024-03-08T12:44:19;9.70;10.30
3037;DHT22;1528;52.550;13.408;2024-03-08T12:47:07;9.70;10.00
3037;DHT22;1528;52.550;13.408;2024-03-08T12:49:52;9.70;9.00
3037;DHT22;1528;52.550;13.408;2024-03-08T12:52:38;9.80;8.80
3037;DHT22;1528;52.550;13.408;2024-03-08T12:55:23;9.80;9.50
3037;DHT22;1528;52.550;13.408;2024-03-08T12:58:09;9.90;9.60
3037;DHT22;1528;52.550;13.408;2024-03-08T13:00:55;9.90;9.80
3037;DHT22;1528;52.550;13.408;2024-03-08T13:03:42;9.80;9.90
3037;DHT22;1528;52.550;13.408;2024-03-08T13:06:28;9.80;9.80
3037;DHT22;1528;52.550;13.408;2024-03-08T13:09:15;9.90;9.30
3037;DHT22;1528;52.550;13.408;2024-03-08T13:12:04;10.00;8.90
3037;DHT22;1528;52.550;13.408;2024-03-08T13:14:50;9.90;9.50
3037;DHT22;1528;52.550;13.408;2024-03-08T13:17:36;9.70;10.10
3037;DHT22;1528;52.550;13.408;2024-03-08T13:20:25;9.70;11.20
3037;DHT22;1528;52.550;13.408;2024-03-08T13:23:12;9.70;11.10
3037;DHT22;1528;52.550;13.408;2024-03-08T13:25:58;9.80;10.80
3037;DHT22;1528;52.550;13.408;2024-03-08T13:28:46;10.00;9.60
3037;DHT22;1528;52.550;13.408;2024-03-08T13:31:33;10.20;10.20
3037;DHT22;1528;52.550;13.408;2024-03-08T13:34:20;10.20;8.40
3037;DHT22;1528;52.550;13.408;2024-03-08T13:37:15;10.20;8.10
3037;DHT22;1528;52.550;13.408;2024-03-08T13:40:01;10.10;8.00
3037;DHT22;1528;52.550;13.408;2024-03-08T13:42:50;10.10;8.50
3037;DHT22;1528;52.550;13.408;2024-03-08T13:45:37;10.20;8.40
3037;DHT22;1528;52.550;13.408;2024-03-08T13:48:24;10.20;8.50
3037;DHT22;1528;52.550;13.408;2024-03-08T13:51:10;10.30;8.80
3037;DHT22;1528;52.550;13.408;2024-03-08T13:54:02;10.20;8.50
3037;DHT22;1528;52.550;13.408;2024-03-08T13:56:51;10.10;8.80
3037;DHT22;1528;52.550;13.408;2024-03-08T13:59:39;10.20;9.30
3037;DHT22;1528;52.550;13.408;2024-03-08T14:02:25;10.20;9.80
3037;DHT22;1528;52.550;13.408;2024-03-08T14:05:13;10.10;10.80
3037;DHT22;1528;52.550;13.408;2024-03-08T14:08:01;10.00;11.60
3037;DHT22;1528;52.550;13.408;2024-03-08T14:10:49;9.90;12.60
3037;DHT22;1528;52.550;13.408;2024-03-08T14:13:41;10.00;11.90
3037;DHT22;1528;52.550;13.408;2024-03-08T14:16:28;10.20;11.10
3037;DHT22;1528;52.550;13.408;2024-03-08T14:19:14;10.30;11.80
3037;DHT22;1528;52.550;13.408;2024-03-08T14:21:59;10.20;11.00
3037;DHT22;1528;52.550;13.408;2024-03-08T14:24:48;10.20;11.20
3037;DHT22;1528;52.550;13.408;2024-03-08T14:27:35;10.10;11.30
3037;DHT22;1528;52.550;13.408;2024-03-08T14:30:20;10.00;11.40
3037;DHT22;1528;52.550;13.408;2024-03-08T14:33:18;10.00;11.30
3037;DHT22;1528;52.550;13.408;2024-03-08T14:36:04;9.90;11.70
3037;DHT22;1528;52.550;13.408;2024-03-08T14:38:50;9.80;11.90
3037;DHT22;1528;52.550;13.408;2024-03-08T14:41:36;9.80;12.00
3037;DHT22;1528;52.550;13.408;2024-03-08T14:44:23;9.80;11.80
3037;DHT22;1528;52.550;13.408;2024-03-08T14:47:10;10.00;11.20
3037;DHT22;1528;52.550;13.408;2024-03-08T14:49:55;10.10;11.10
3037;DHT22;1528;52.550;13.408;2024-03-08T14:52:41;10.20;10.60
3037;DHT22;1528;52.550;13.408;2024-03-08T14:55:27;10.10;10.20
3037;DHT22;1528;52.550;13.408;2024-03-08T14:58:14;10.10;10.20
3037;DHT22;1528;52.550;13.408;2024-03-08T15:01:01;10.00;9.90
3037;DHT22;1528;52.550;13.408;2024-03-08T15:03:47;10.10;10.10
3037;DHT22;1528;52.550;13.408;2024-03-08T15:06:33;10.30;9.00
3037;DHT22;1528;52.550;13.408;2024-03-08T15:09:20;10.10;8.90
3037;DHT22;1528;52.550;13.408;2024-03-08T15:12:07;10.20;8.50
3037;DHT22;1528;52.550;13.408;2024-03-08T15:14:54;10.20;8.60
3037;DHT22;1528;52.550;13.408;2024-03-08T15:17:41;10.30;9.00
3037;DHT22;1528;52.550;13.408;2024-03-08T15:20:27;10.00;8.60
3037;DHT22;1528;52.550;13.408;2024-03-08T15:23:13;9.90;9.20
3037;DHT22;1528;52.550;13.408;2024-03-08T15:26:00;9.90;9.00
3037;DHT22;1528;52.550;13.408;2024-03-08T15:28:47;9.80;8.50
3037;DHT22;1528;52.550;13.408;2024-03-08T15:31:35;9.90;8.60
3037;DHT22;1528;52.550;13.408;2024-03-08T15:34:23;9.80;8.30
3037;DHT22;1528;52.550;13.408;2024-03-08T15:37:10;9.80;8.50
3037;DHT22;1528;52.550;13.408;2024-03-08T15:40:00;9.80;8.80
3037;DHT22;1528;52.550;13.408;2024-03-08T15:42:55;9.90;8.50
3037;DHT22;1528;52.550;13.408;2024-03-08T15:45:40;9.90;8.50
3037;DHT22;1528;52.550;13.408;2024-03-08T15:48:26;9.90;8.70
3037;DHT22;1528;52.550;13.408;2024-03-08T15:51:16;9.90;8.80
3037;DHT22;1528;52.550;13.408;2024-03-08T15:54:03;9.80;9.00
3037;DHT22;1528;52.550;13.408;2024-03-08T15:56:49;9.90;9.30
3037;DHT22;1528;52.550;13.408;2024-03-08T15:59:36;9.80;9.50
3037;DHT22;1528;52.550;13.408;2024-03-08T16:02:23;9.80;9.40
3037;DHT22;1528;52.550;13.408;2024-03-08T16:05:10;9.80;9.50
3037;DHT22;1528;52.550;13.408;2024-03-08T16:08:00;9.70;10.00
3037;DHT22;1528;52.550;13.408;2024-03-08T16:10:48;9.60;10.00
3037;DHT22;1528;52.550;13.408;2024-03-08T16:13:35;9.70;10.60
3037;DHT22;1528;52.550;13.408;2024-03-08T16:16:23;9.70;10.00
3037;DHT22;1528;52.550;13.408;2024-03-08T16:19:11;9.70;10.10
3037;DHT22;1528;52.550;13.408;2024-03-08T16:21:58;9.60;10.30
3037;DHT22;1528;52.550;13.408;2024-03-08T16:24:46;9.50;10.40
3037;DHT22;1528;52.550;13.408;2024-03-08T16:27:35;9.50;10.30
3037;DHT22;1528;52.550;13.408;2024-03-08T16:30:22;9.50;10.30
3037;DHT22;1528;52.550;13.408;2024-03-08T16:33:09;9.40;10.30
3037;DHT22;1528;52.550;13.408;2024-03-08T16:35:56;9.40;10.40
3037;DHT22;1528;52.550;13.408;2024-03-08T16:38:42;9.40;10.40
3037;DHT22;1528;52.550;13.408;2024-03-08T16:41:30;9.30;10.50
3037;DHT22;1528;52.550;13.408;2024-03-08T16:44:16;9.30;10.80
3037;DHT22;1528;52.550;13.408;2024-03-08T16:47:04;9.20;10.70
3037;DHT22;1528;52.550;13.408;2024-03-08T16:49:49;9.20;10.90
3037;DHT22;1528;52.550;13.408;2024-03-08T16:52:35;9.10;11.10
3037;DHT22;1528;52.550;13.408;2024-03-08T16:55:21;9.10;11.10
3037;DHT22;1528;52.550;13.408;2024-03-08T16:58:08;9.00;11.10
3037;DHT22;1528;52.550;13.408;2024-03-08T17:00:58;9.00;11.30
3037;DHT22;1528;52.550;13.408;2024-03-08T17:03:44;8.90;12.00
3037;DHT22;1528;52.550;13.408;2024-03-08T17:06:30;8.90;11.50
3037;DHT22;1528;52.550;13.408;2024-03-08T17:09:16;8.90;12.00
3037;DHT22;1528;52.550;13.408;2024-03-08T17:12:01;8.90;11.60
3037;DHT22;1528;52.550;13.408;2024-03-08T17:14:50;8.80;11.60
3037;DHT22;1528;52.550;13.408;2024-03-08T17:17:35;8.80;11.70
3037;DHT22;1528;52.550;13.408;2024-03-08T17:20:21;8.70;12.00
3037;DHT22;1528;52.550;13.408;2024-03-08T17:23:09;8.70;12.10
3037;DHT22;1528;52.550;13.408;2024-03-08T17:25:57;8.60;12.10
3037;DHT22;1528;52.550;13.408;2024-03-08T17:28:42;8.70;12.30
3037;DHT22;1528;52.550;13.408;2024-03-08T17:31:30;8.60;12.20
3037;DHT22;1528;52.550;13.408;2024-03-08T17:34:16;8.60;12.10
3037;DHT22;1528;52.550;13.408;2024-03-08T17:37:02;8.50;12.10
3037;DHT22;1528;52.550;13.408;2024-03-08T17:39:48;8.50;12.00
3037;DHT22;1528;52.550;13.408;2024-03-08T17:42:33;8.50;11.80
3037;DHT22;1528;52.550;13.408;2024-03-08T17:45:20;8.70;11.90
3037;DHT22;1528;52.550;13.408;2024-03-08T17:48:08;8.50;11.80
3037;DHT22;1528;52.550;13.408;2024-03-08T17:50:56;8.50;11.80
3037;DHT22;1528;52.550;13.408;2024-03-08T17:53:43;8.40;11.90
3037;DHT22;1528;52.550;13.408;2024-03-08T17:56:29;8.40;11.90
3037;DHT22;1528;52.550;13.408;2024-03-08T17:59:14;8.40;12.10
3037;DHT22;1528;52.550;13.408;2024-03-08T18:02:00;8.30;12.20
3037;DHT22;1528;52.550;13.408;2024-03-08T18:04:48;8.30;12.40
3037;DHT22;1528;52.550;13.408;2024-03-08T18:07:34;8.30;12.40
3037;DHT22;1528;52.550;13.408;2024-03-08T18:10:19;8.30;12.50
3037;DHT22;1528;52.550;13.408;2024-03-08T18:13:05;8.20;12.80
3037;DHT22;1528;52.550;13.408;2024-03-08T18:15:56;8.00;12.80
3037;DHT22;1528;52.550;13.408;2024-03-08T18:18:42;8.00;13.00
3037;DHT22;1528;52.550;13.408;2024-03-08T18:21:30;8.00;13.00